Prudhoe Bay, Alaska
Current Conditions -  °F | °C
As of 1:24 PM on Thursday 23 Oct 2014 (Local Time) from PASC Reporting Station
Haze Haze  
Wind Chill:   Ceiling: 3200
Heat Index: 18°   Visibility: 5mi
Dew Point: 14°   Wind: 18mph
Humidity: 84%   Direction: 90°E
Pressure: 29.88"   Gusts: NA
Location:  70.28°N, 148.38°W
Report Text: PASC 232124Z 09016KT 5SM BR SCT021 BKN032 OVC080 M08/M10 A2988 RMK AO2 T10781100
Loading
Personal Weather Stations






























Interactive Weather Map New forecast layout! Learn more

10-Day Weather Forecast

Advertisements
Track Severe Weather on mobile